sensor_id;sensor_type;location;lat;lon;timestamp;noise_LAeq;noise_LA_min;noise_LA_max;noise_LA01;noise_LA95
66399;Laerm;54877;51.504;3.894;2023-12-29T00:00:24;42.40;37.62;49.09;;
66399;Laerm;54877;51.504;3.894;2023-12-29T00:02:49;39.15;37.18;45.75;;
66399;Laerm;54877;51.504;3.894;2023-12-29T00:05:15;39.24;37.43;44.60;;
66399;Laerm;54877;51.504;3.894;2023-12-29T00:07:40;39.51;37.34;57.59;;
66399;Laerm;54877;51.504;3.894;2023-12-29T00:10:06;40.44;37.19;50.37;;
66399;Laerm;54877;51.504;3.894;2023-12-29T00:12:31;40.40;37.25;56.60;;
66399;Laerm;54877;51.504;3.894;2023-12-29T00:14:57;40.07;37.45;49.43;;
66399;Laerm;54877;51.504;3.894;2023-12-29T00:17:22;41.79;37.63;64.49;;
66399;Laerm;54877;51.504;3.894;2023-12-29T00:19:47;40.37;37.62;44.74;;
66399;Laerm;54877;51.504;3.894;2023-12-29T00:22:12;40.23;37.61;49.07;;
66399;Laerm;54877;51.504;3.894;2023-12-29T00:24:38;39.47;37.74;42.04;;
66399;Laerm;54877;51.504;3.894;2023-12-29T00:27:04;40.33;37.34;55.87;;
66399;Laerm;54877;51.504;3.894;2023-12-29T00:29:30;40.30;37.43;52.02;;
66399;Laerm;54877;51.504;3.894;2023-12-29T00:31:58;38.94;37.04;46.87;;
66399;Laerm;54877;51.504;3.894;2023-12-29T00:34:25;39.33;37.15;55.52;;
66399;Laerm;54877;51.504;3.894;2023-12-29T00:36:51;39.50;36.96;60.58;;
66399;Laerm;54877;51.504;3.894;2023-12-29T00:39:16;39.27;37.11;47.68;;
66399;Laerm;54877;51.504;3.894;2023-12-29T00:41:42;39.90;37.29;54.76;;
66399;Laerm;54877;51.504;3.894;2023-12-29T00:44:07;39.45;37.17;57.91;;
66399;Laerm;54877;51.504;3.894;2023-12-29T00:46:33;38.80;36.91;45.93;;
66399;Laerm;54877;51.504;3.894;2023-12-29T00:48:58;39.62;37.16;57.25;;
66399;Laerm;54877;51.504;3.894;2023-12-29T00:51:24;39.00;37.15;43.64;;
66399;Laerm;54877;51.504;3.894;2023-12-29T00:53:49;39.64;37.03;51.18;;
66399;Laerm;54877;51.504;3.894;2023-12-29T00:56:14;40.87;37.63;58.58;;
66399;Laerm;54877;51.504;3.894;2023-12-29T00:58:40;41.20;37.00;56.62;;
66399;Laerm;54877;51.504;3.894;2023-12-29T01:01:06;39.32;37.10;54.64;;
66399;Laerm;54877;51.504;3.894;2023-12-29T01:03:33;40.94;37.40;55.44;;
66399;Laerm;54877;51.504;3.894;2023-12-29T01:05:59;39.09;37.47;44.10;;
66399;Laerm;54877;51.504;3.894;2023-12-29T01:08:24;39.56;37.14;58.13;;
66399;Laerm;54877;51.504;3.894;2023-12-29T01:10:50;39.10;37.25;52.77;;
66399;Laerm;54877;51.504;3.894;2023-12-29T01:13:15;38.77;37.09;47.15;;
66399;Laerm;54877;51.504;3.894;2023-12-29T01:15:41;39.30;36.85;51.71;;
66399;Laerm;54877;51.504;3.894;2023-12-29T01:18:10;38.85;37.16;43.36;;
66399;Laerm;54877;51.504;3.894;2023-12-29T01:20:35;38.89;36.83;50.36;;
66399;Laerm;54877;51.504;3.894;2023-12-29T01:23:00;39.76;37.09;61.44;;
66399;Laerm;54877;51.504;3.894;2023-12-29T01:25:26;38.55;36.90;41.22;;
66399;Laerm;54877;51.504;3.894;2023-12-29T01:27:51;40.36;37.19;63.87;;
66399;Laerm;54877;51.504;3.894;2023-12-29T01:30:16;39.82;37.18;51.06;;
66399;Laerm;54877;51.504;3.894;2023-12-29T01:32:41;38.84;37.05;48.56;;
66399;Laerm;54877;51.504;3.894;2023-12-29T01:35:07;38.60;37.14;43.93;;
66399;Laerm;54877;51.504;3.894;2023-12-29T01:37:33;38.94;37.00;49.13;;
66399;Laerm;54877;51.504;3.894;2023-12-29T01:39:58;38.79;37.12;42.27;;
66399;Laerm;54877;51.504;3.894;2023-12-29T01:42:23;38.77;37.10;48.05;;
66399;Laerm;54877;51.504;3.894;2023-12-29T01:44:49;39.23;37.01;56.76;;
66399;Laerm;54877;51.504;3.894;2023-12-29T01:47:20;38.45;36.92;42.87;;
66399;Laerm;54877;51.504;3.894;2023-12-29T01:49:48;39.14;37.19;53.61;;
66399;Laerm;54877;51.504;3.894;2023-12-29T01:52:15;38.72;36.93;45.81;;
66399;Laerm;54877;51.504;3.894;2023-12-29T01:54:41;38.66;36.81;43.68;;
66399;Laerm;54877;51.504;3.894;2023-12-29T01:57:08;38.53;36.99;44.14;;
66399;Laerm;54877;51.504;3.894;2023-12-29T01:59:34;38.59;36.81;48.96;;
66399;Laerm;54877;51.504;3.894;2023-12-29T02:02:01;38.59;37.05;43.04;;
66399;Laerm;54877;51.504;3.894;2023-12-29T02:04:27;39.71;37.18;50.52;;
66399;Laerm;54877;51.504;3.894;2023-12-29T02:06:54;38.85;37.04;49.11;;
66399;Laerm;54877;51.504;3.894;2023-12-29T02:09:20;38.65;37.10;49.22;;
66399;Laerm;54877;51.504;3.894;2023-12-29T02:11:46;38.54;36.63;44.13;;
66399;Laerm;54877;51.504;3.894;2023-12-29T02:14:13;38.83;37.22;53.49;;
66399;Laerm;54877;51.504;3.894;2023-12-29T02:17:04;38.65;37.14;50.99;;
66399;Laerm;54877;51.504;3.894;2023-12-29T02:19:41;38.99;36.99;53.76;;
66399;Laerm;54877;51.504;3.894;2023-12-29T02:22:10;38.64;37.00;44.42;;
66399;Laerm;54877;51.504;3.894;2023-12-29T02:24:36;38.67;36.89;47.12;;
66399;Laerm;54877;51.504;3.894;2023-12-29T02:27:14;38.71;36.93;47.17;;
66399;Laerm;54877;51.504;3.894;2023-12-29T02:32:39;38.54;36.84;46.16;;
66399;Laerm;54877;51.504;3.894;2023-12-29T02:35:07;38.80;36.81;53.22;;
66399;Laerm;54877;51.504;3.894;2023-12-29T02:37:36;38.79;36.78;50.04;;
66399;Laerm;54877;51.504;3.894;2023-12-29T02:40:02;38.41;36.86;48.11;;
66399;Laerm;54877;51.504;3.894;2023-12-29T02:42:28;38.45;36.56;47.69;;
66399;Laerm;54877;51.504;3.894;2023-12-29T02:44:53;38.36;36.64;47.51;;
66399;Laerm;54877;51.504;3.894;2023-12-29T02:47:18;38.67;36.15;46.29;;
66399;Laerm;54877;51.504;3.894;2023-12-29T02:49:44;38.50;36.61;49.33;;
66399;Laerm;54877;51.504;3.894;2023-12-29T02:52:09;38.43;36.82;48.24;;
66399;Laerm;54877;51.504;3.894;2023-12-29T02:54:35;38.07;36.34;45.93;;
66399;Laerm;54877;51.504;3.894;2023-12-29T02:57:00;38.18;36.50;40.96;;
66399;Laerm;54877;51.504;3.894;2023-12-29T02:59:25;38.58;36.73;49.29;;
66399;Laerm;54877;51.504;3.894;2023-12-29T03:01:51;38.61;36.77;44.27;;
66399;Laerm;54877;51.504;3.894;2023-12-29T03:04:16;38.49;36.91;48.23;;
66399;Laerm;54877;51.504;3.894;2023-12-29T03:06:42;38.45;36.87;44.64;;
66399;Laerm;54877;51.504;3.894;2023-12-29T03:09:07;38.34;36.88;42.37;;
66399;Laerm;54877;51.504;3.894;2023-12-29T03:11:32;38.32;36.60;42.63;;
66399;Laerm;54877;51.504;3.894;2023-12-29T03:13:58;38.29;36.62;48.45;;
66399;Laerm;54877;51.504;3.894;2023-12-29T03:16:23;38.53;36.93;51.46;;
66399;Laerm;54877;51.504;3.894;2023-12-29T03:18:48;39.02;36.37;53.14;;
66399;Laerm;54877;51.504;3.894;2023-12-29T03:21:14;38.20;36.67;44.62;;
66399;Laerm;54877;51.504;3.894;2023-12-29T03:23:39;38.46;36.85;42.23;;
66399;Laerm;54877;51.504;3.894;2023-12-29T03:26:04;38.22;36.68;41.50;;
66399;Laerm;54877;51.504;3.894;2023-12-29T03:28:30;38.25;36.24;45.37;;
66399;Laerm;54877;51.504;3.894;2023-12-29T03:30:56;38.64;36.67;51.69;;
66399;Laerm;54877;51.504;3.894;2023-12-29T03:33:21;38.13;36.62;39.56;;
66399;Laerm;54877;51.504;3.894;2023-12-29T03:35:46;38.28;36.53;45.41;;
66399;Laerm;54877;51.504;3.894;2023-12-29T03:38:13;38.52;36.67;43.90;;
66399;Laerm;54877;51.504;3.894;2023-12-29T03:40:39;38.60;36.76;49.52;;
66399;Laerm;54877;51.504;3.894;2023-12-29T03:43:05;38.75;36.60;51.00;;
66399;Laerm;54877;51.504;3.894;2023-12-29T03:45:30;38.36;36.55;46.86;;
66399;Laerm;54877;51.504;3.894;2023-12-29T03:47:56;38.19;36.81;45.65;;
66399;Laerm;54877;51.504;3.894;2023-12-29T03:50:21;38.79;36.51;46.63;;
66399;Laerm;54877;51.504;3.894;2023-12-29T03:52:47;47.82;36.64;64.39;;
66399;Laerm;54877;51.504;3.894;2023-12-29T03:55:12;38.36;36.49;45.22;;
66399;Laerm;54877;51.504;3.894;2023-12-29T03:57:38;38.40;36.62;56.76;;
66399;Laerm;54877;51.504;3.894;2023-12-29T04:00:04;38.50;36.20;53.13;;
66399;Laerm;54877;51.504;3.894;2023-12-29T04:02:31;38.03;36.39;42.73;;
66399;Laerm;54877;51.504;3.894;2023-12-29T04:04:56;38.36;36.50;44.85;;
66399;Laerm;54877;51.504;3.894;2023-12-29T04:07:22;38.07;36.46;44.14;;
66399;Laerm;54877;51.504;3.894;2023-12-29T04:09:47;38.53;36.66;46.66;;
66399;Laerm;54877;51.504;3.894;2023-12-29T04:12:12;38.13;36.69;43.38;;
66399;Laerm;54877;51.504;3.894;2023-12-29T04:14:38;38.63;36.61;45.84;;
66399;Laerm;54877;51.504;3.894;2023-12-29T04:17:03;38.50;36.60;44.27;;
66399;Laerm;54877;51.504;3.894;2023-12-29T04:19:30;38.06;36.55;46.43;;
66399;Laerm;54877;51.504;3.894;2023-12-29T04:21:55;38.15;36.66;43.81;;
66399;Laerm;54877;51.504;3.894;2023-12-29T04:24:21;38.12;36.47;44.70;;
66399;Laerm;54877;51.504;3.894;2023-12-29T04:26:46;37.91;36.35;42.24;;
66399;Laerm;54877;51.504;3.894;2023-12-29T04:29:11;37.84;36.45;39.09;;
66399;Laerm;54877;51.504;3.894;2023-12-29T04:31:37;38.06;36.55;44.14;;
66399;Laerm;54877;51.504;3.894;2023-12-29T04:34:02;38.40;36.38;46.26;;
66399;Laerm;54877;51.504;3.894;2023-12-29T04:36:27;38.26;36.32;46.49;;
66399;Laerm;54877;51.504;3.894;2023-12-29T04:38:53;38.07;36.28;54.38;;
66399;Laerm;54877;51.504;3.894;2023-12-29T04:41:18;38.17;36.52;49.31;;
66399;Laerm;54877;51.504;3.894;2023-12-29T04:43:44;38.00;36.23;45.71;;
66399;Laerm;54877;51.504;3.894;2023-12-29T04:46:09;38.00;36.53;39.90;;
66399;Laerm;54877;51.504;3.894;2023-12-29T04:48:34;38.23;36.64;43.58;;
66399;Laerm;54877;51.504;3.894;2023-12-29T04:50:59;37.90;36.44;39.53;;
66399;Laerm;54877;51.504;3.894;2023-12-29T04:53:25;37.98;36.35;40.30;;
66399;Laerm;54877;51.504;3.894;2023-12-29T04:55:50;39.41;36.55;59.74;;
66399;Laerm;54877;51.504;3.894;2023-12-29T04:58:15;39.22;36.56;60.01;;
66399;Laerm;54877;51.504;3.894;2023-12-29T05:00:41;42.80;36.42;60.90;;
66399;Laerm;54877;51.504;3.894;2023-12-29T05:03:06;38.34;36.54;47.12;;
66399;Laerm;54877;51.504;3.894;2023-12-29T05:05:31;37.97;36.32;40.72;;
66399;Laerm;54877;51.504;3.894;2023-12-29T05:07:57;38.15;36.51;48.15;;
66399;Laerm;54877;51.504;3.894;2023-12-29T05:10:22;38.47;36.77;43.92;;
66399;Laerm;54877;51.504;3.894;2023-12-29T05:12:47;38.35;36.51;51.51;;
66399;Laerm;54877;51.504;3.894;2023-12-29T05:15:13;38.22;36.49;44.79;;
66399;Laerm;54877;51.504;3.894;2023-12-29T05:17:38;40.05;36.62;62.81;;
66399;Laerm;54877;51.504;3.894;2023-12-29T05:20:06;38.60;36.48;44.35;;
66399;Laerm;54877;51.504;3.894;2023-12-29T05:22:31;41.61;38.54;54.50;;
66399;Laerm;54877;51.504;3.894;2023-12-29T05:24:57;43.70;37.36;50.42;;
66399;Laerm;54877;51.504;3.894;2023-12-29T05:27:25;40.48;37.33;45.70;;
66399;Laerm;54877;51.504;3.894;2023-12-29T05:29:51;41.26;38.60;48.50;;
66399;Laerm;54877;51.504;3.894;2023-12-29T05:32:16;41.09;38.93;45.52;;
66399;Laerm;54877;51.504;3.894;2023-12-29T05:34:41;49.39;38.11;66.95;;
66399;Laerm;54877;51.504;3.894;2023-12-29T05:37:07;50.69;38.30;67.12;;
66399;Laerm;54877;51.504;3.894;2023-12-29T05:39:32;39.57;37.47;42.76;;
66399;Laerm;54877;51.504;3.894;2023-12-29T05:41:57;39.70;37.22;45.21;;
66399;Laerm;54877;51.504;3.894;2023-12-29T05:44:23;39.72;37.97;46.52;;
66399;Laerm;54877;51.504;3.894;2023-12-29T05:46:48;39.63;37.70;52.07;;
66399;Laerm;54877;51.504;3.894;2023-12-29T05:49:14;39.86;37.31;51.95;;
66399;Laerm;54877;51.504;3.894;2023-12-29T05:51:39;39.70;37.82;41.55;;
66399;Laerm;54877;51.504;3.894;2023-12-29T05:54:04;44.04;37.85;62.18;;
66399;Laerm;54877;51.504;3.894;2023-12-29T05:56:30;40.18;37.77;53.75;;
66399;Laerm;54877;51.504;3.894;2023-12-29T05:58:56;39.58;37.67;47.06;;
66399;Laerm;54877;51.504;3.894;2023-12-29T06:01:21;39.59;37.77;51.37;;
66399;Laerm;54877;51.504;3.894;2023-12-29T06:03:47;39.68;37.53;45.23;;
66399;Laerm;54877;51.504;3.894;2023-12-29T06:06:12;44.15;37.79;61.07;;
66399;Laerm;54877;51.504;3.894;2023-12-29T06:08:37;39.68;37.28;45.31;;
66399;Laerm;54877;51.504;3.894;2023-12-29T06:11:03;40.32;37.32;55.60;;
66399;Laerm;54877;51.504;3.894;2023-12-29T06:13:28;40.37;37.96;48.74;;
66399;Laerm;54877;51.504;3.894;2023-12-29T06:15:54;45.33;38.00;62.79;;
66399;Laerm;54877;51.504;3.894;2023-12-29T06:18:20;40.59;38.18;55.69;;
66399;Laerm;54877;51.504;3.894;2023-12-29T06:20:45;40.45;38.29;51.41;;
66399;Laerm;54877;51.504;3.894;2023-12-29T06:23:11;39.60;37.75;41.25;;
66399;Laerm;54877;51.504;3.894;2023-12-29T06:25:36;40.09;37.68;54.35;;
66399;Laerm;54877;51.504;3.894;2023-12-29T06:28:02;39.59;37.96;43.12;;
66399;Laerm;54877;51.504;3.894;2023-12-29T06:30:29;40.87;37.60;58.80;;
66399;Laerm;54877;51.504;3.894;2023-12-29T06:32:54;44.26;37.31;62.09;;
66399;Laerm;54877;51.504;3.894;2023-12-29T06:35:20;46.81;37.56;65.53;;
66399;Laerm;54877;51.504;3.894;2023-12-29T06:37:45;39.65;37.79;50.00;;
66399;Laerm;54877;51.504;3.894;2023-12-29T06:40:11;45.00;37.49;62.34;;
66399;Laerm;54877;51.504;3.894;2023-12-29T06:42:36;42.01;37.86;56.76;;
66399;Laerm;54877;51.504;3.894;2023-12-29T06:45:01;39.27;37.54;50.13;;
66399;Laerm;54877;51.504;3.894;2023-12-29T06:47:27;40.79;37.55;53.71;;
66399;Laerm;54877;51.504;3.894;2023-12-29T06:49:52;44.95;37.68;63.75;;
66399;Laerm;54877;51.504;3.894;2023-12-29T06:52:18;40.08;37.80;52.00;;
66399;Laerm;54877;51.504;3.894;2023-12-29T06:54:43;40.29;38.30;48.24;;
66399;Laerm;54877;51.504;3.894;2023-12-29T06:57:09;40.28;37.27;51.30;;
66399;Laerm;54877;51.504;3.894;2023-12-29T06:59:34;43.63;37.41;64.90;;
66399;Laerm;54877;51.504;3.894;2023-12-29T07:02:00;40.56;37.47;59.77;;
66399;Laerm;54877;51.504;3.894;2023-12-29T07:04:25;42.16;37.46;57.12;;
66399;Laerm;54877;51.504;3.894;2023-12-29T07:06:51;39.30;37.49;41.72;;
66399;Laerm;54877;51.504;3.894;2023-12-29T07:09:16;45.07;37.41;62.49;;
66399;Laerm;54877;51.504;3.894;2023-12-29T07:11:41;39.32;37.64;42.95;;
66399;Laerm;54877;51.504;3.894;2023-12-29T07:14:12;39.42;37.45;44.79;;
66399;Laerm;54877;51.504;3.894;2023-12-29T07:16:37;44.78;37.23;63.46;;
66399;Laerm;54877;51.504;3.894;2023-12-29T07:19:02;40.10;37.74;49.09;;
66399;Laerm;54877;51.504;3.894;2023-12-29T07:21:28;46.55;38.06;62.73;;
66399;Laerm;54877;51.504;3.894;2023-12-29T07:23:53;39.46;37.59;43.17;;
66399;Laerm;54877;51.504;3.894;2023-12-29T07:26:19;40.26;37.56;54.55;;
66399;Laerm;54877;51.504;3.894;2023-12-29T07:28:44;39.68;37.36;56.15;;
66399;Laerm;54877;51.504;3.894;2023-12-29T07:31:09;39.20;37.47;42.03;;
66399;Laerm;54877;51.504;3.894;2023-12-29T07:33:35;39.95;38.02;45.65;;
66399;Laerm;54877;51.504;3.894;2023-12-29T07:36:00;39.61;37.56;50.42;;
66399;Laerm;54877;51.504;3.894;2023-12-29T07:38:26;44.38;37.73;61.85;;
66399;Laerm;54877;51.504;3.894;2023-12-29T07:40:51;44.49;37.69;62.86;;
66399;Laerm;54877;51.504;3.894;2023-12-29T07:43:17;49.92;37.51;69.02;;
66399;Laerm;54877;51.504;3.894;2023-12-29T07:45:42;39.57;37.47;50.72;;
66399;Laerm;54877;51.504;3.894;2023-12-29T07:48:10;40.06;37.48;49.86;;
66399;Laerm;54877;51.504;3.894;2023-12-29T07:50:35;42.57;37.22;60.51;;
66399;Laerm;54877;51.504;3.894;2023-12-29T07:53:02;42.64;37.18;60.03;;
66399;Laerm;54877;51.504;3.894;2023-12-29T07:55:29;44.25;37.13;59.96;;
66399;Laerm;54877;51.504;3.894;2023-12-29T07:57:54;42.59;37.12;62.07;;
66399;Laerm;54877;51.504;3.894;2023-12-29T08:00:19;38.78;36.89;43.11;;
66399;Laerm;54877;51.504;3.894;2023-12-29T08:02:44;41.97;36.84;57.16;;
66399;Laerm;54877;51.504;3.894;2023-12-29T08:05:10;38.60;37.10;46.81;;
66399;Laerm;54877;51.504;3.894;2023-12-29T08:07:36;39.87;36.97;55.24;;
66399;Laerm;54877;51.504;3.894;2023-12-29T08:10:04;39.46;36.79;53.45;;
66399;Laerm;54877;51.504;3.894;2023-12-29T08:12:30;41.34;36.57;59.37;;
66399;Laerm;54877;51.504;3.894;2023-12-29T08:14:55;48.36;37.16;64.66;;
66399;Laerm;54877;51.504;3.894;2023-12-29T08:17:21;38.75;37.04;44.44;;
66399;Laerm;54877;51.504;3.894;2023-12-29T08:19:47;45.50;37.21;64.66;;
66399;Laerm;54877;51.504;3.894;2023-12-29T08:22:12;39.14;36.63;51.02;;
66399;Laerm;54877;51.504;3.894;2023-12-29T08:24:40;39.11;36.86;48.66;;
66399;Laerm;54877;51.504;3.894;2023-12-29T08:27:06;39.00;36.98;49.19;;
66399;Laerm;54877;51.504;3.894;2023-12-29T08:29:31;44.72;36.64;63.19;;
66399;Laerm;54877;51.504;3.894;2023-12-29T08:31:57;39.12;36.81;48.80;;
66399;Laerm;54877;51.504;3.894;2023-12-29T08:34:22;39.20;36.89;53.93;;
66399;Laerm;54877;51.504;3.894;2023-12-29T08:36:47;43.90;36.81;59.75;;
66399;Laerm;54877;51.504;3.894;2023-12-29T08:39:13;39.03;36.92;49.05;;
66399;Laerm;54877;51.504;3.894;2023-12-29T08:41:38;38.24;36.75;46.38;;
66399;Laerm;54877;51.504;3.894;2023-12-29T08:44:04;39.00;36.69;49.83;;
66399;Laerm;54877;51.504;3.894;2023-12-29T08:46:29;39.85;36.95;56.98;;
66399;Laerm;54877;51.504;3.894;2023-12-29T08:48:55;47.77;36.84;66.08;;
66399;Laerm;54877;51.504;3.894;2023-12-29T08:51:20;39.17;37.01;50.63;;
66399;Laerm;54877;51.504;3.894;2023-12-29T08:53:45;43.62;37.05;60.68;;
66399;Laerm;54877;51.504;3.894;2023-12-29T08:56:11;39.89;36.43;62.24;;
66399;Laerm;54877;51.504;3.894;2023-12-29T08:58:40;40.47;37.09;57.56;;
66399;Laerm;54877;51.504;3.894;2023-12-29T09:01:06;42.85;37.35;57.59;;
66399;Laerm;54877;51.504;3.894;2023-12-29T09:03:32;39.68;37.04;52.11;;
66399;Laerm;54877;51.504;3.894;2023-12-29T09:05:57;49.12;37.09;71.16;;
66399;Laerm;54877;51.504;3.894;2023-12-29T09:08:24;38.91;36.86;47.87;;
66399;Laerm;54877;51.504;3.894;2023-12-29T09:10:49;40.72;36.95;59.17;;
66399;Laerm;54877;51.504;3.894;2023-12-29T09:13:14;49.17;37.09;67.18;;
66399;Laerm;54877;51.504;3.894;2023-12-29T09:15:40;47.86;36.84;67.99;;
66399;Laerm;54877;51.504;3.894;2023-12-29T09:18:05;39.04;36.60;54.90;;
66399;Laerm;54877;51.504;3.894;2023-12-29T09:20:31;44.57;36.89;61.04;;
66399;Laerm;54877;51.504;3.894;2023-12-29T09:22:56;45.18;36.93;70.80;;
66399;Laerm;54877;51.504;3.894;2023-12-29T09:25:23;39.02;37.05;50.58;;
66399;Laerm;54877;51.504;3.894;2023-12-29T09:27:48;38.75;36.90;43.41;;
66399;Laerm;54877;51.504;3.894;2023-12-29T09:30:17;39.31;36.88;52.00;;
66399;Laerm;54877;51.504;3.894;2023-12-29T09:32:42;45.07;37.08;64.12;;
66399;Laerm;54877;51.504;3.894;2023-12-29T09:35:08;42.06;37.17;59.77;;
66399;Laerm;54877;51.504;3.894;2023-12-29T09:37:33;40.20;36.99;59.52;;
66399;Laerm;54877;51.504;3.894;2023-12-29T09:39:58;39.23;36.92;51.79;;
66399;Laerm;54877;51.504;3.894;2023-12-29T09:42:25;42.77;36.96;57.35;;
66399;Laerm;54877;51.504;3.894;2023-12-29T09:44:53;42.95;37.05;58.52;;
66399;Laerm;54877;51.504;3.894;2023-12-29T09:47:23;45.51;37.09;62.97;;
66399;Laerm;54877;51.504;3.894;2023-12-29T09:49:49;40.34;36.72;63.09;;
66399;Laerm;54877;51.504;3.894;2023-12-29T09:52:15;39.51;36.96;45.90;;
66399;Laerm;54877;51.504;3.894;2023-12-29T09:54:42;48.40;37.22;63.96;;
66399;Laerm;54877;51.504;3.894;2023-12-29T09:57:08;47.58;36.78;64.40;;
66399;Laerm;54877;51.504;3.894;2023-12-29T09:59:38;39.39;36.97;51.08;;
66399;Laerm;54877;51.504;3.894;2023-12-29T10:02:12;41.24;37.06;57.59;;
66399;Laerm;54877;51.504;3.894;2023-12-29T10:04:39;44.26;36.76;63.39;;
66399;Laerm;54877;51.504;3.894;2023-12-29T10:07:05;46.66;36.75;62.84;;
66399;Laerm;54877;51.504;3.894;2023-12-29T10:09:33;48.67;36.77;66.37;;
66399;Laerm;54877;51.504;3.894;2023-12-29T10:12:02;48.26;36.94;65.17;;
66399;Laerm;54877;51.504;3.894;2023-12-29T10:17:34;39.06;36.46;52.57;;
66399;Laerm;54877;51.504;3.894;2023-12-29T10:23:06;49.02;36.77;67.59;;
66399;Laerm;54877;51.504;3.894;2023-12-29T10:25:33;47.18;37.01;72.10;;
66399;Laerm;54877;51.504;3.894;2023-12-29T10:27:59;44.96;37.14;63.65;;
66399;Laerm;54877;51.504;3.894;2023-12-29T10:30:26;48.54;37.04;67.82;;
66399;Laerm;54877;51.504;3.894;2023-12-29T10:32:52;44.20;37.17;60.31;;
66399;Laerm;54877;51.504;3.894;2023-12-29T10:35:17;39.07;36.63;52.47;;
66399;Laerm;54877;51.504;3.894;2023-12-29T10:37:43;39.95;37.14;50.51;;
66399;Laerm;54877;51.504;3.894;2023-12-29T10:40:08;47.27;37.12;65.93;;
66399;Laerm;54877;51.504;3.894;2023-12-29T10:42:34;44.23;36.84;61.27;;
66399;Laerm;54877;51.504;3.894;2023-12-29T10:45:07;41.55;37.42;61.71;;
66399;Laerm;54877;51.504;3.894;2023-12-29T10:47:33;39.32;36.73;58.56;;
66399;Laerm;54877;51.504;3.894;2023-12-29T10:50:02;46.53;37.05;63.32;;
66399;Laerm;54877;51.504;3.894;2023-12-29T10:52:31;48.89;37.24;67.96;;
66399;Laerm;54877;51.504;3.894;2023-12-29T10:55:08;49.60;36.90;69.32;;
66399;Laerm;54877;51.504;3.894;2023-12-29T10:57:35;38.96;36.93;53.08;;
66399;Laerm;54877;51.504;3.894;2023-12-29T11:00:00;39.21;36.65;49.98;;
66399;Laerm;54877;51.504;3.894;2023-12-29T11:02:27;48.94;36.88;65.13;;
66399;Laerm;54877;51.504;3.894;2023-12-29T11:05:05;48.68;36.73;75.51;;
66399;Laerm;54877;51.504;3.894;2023-12-29T11:07:38;39.58;37.05;48.11;;
66399;Laerm;54877;51.504;3.894;2023-12-29T11:10:06;39.66;36.67;54.47;;
66399;Laerm;54877;51.504;3.894;2023-12-29T11:12:33;41.21;36.95;58.92;;
66399;Laerm;54877;51.504;3.894;2023-12-29T11:15:01;51.45;39.85;67.61;;
66399;Laerm;54877;51.504;3.894;2023-12-29T11:17:29;49.63;37.69;63.93;;
66399;Laerm;54877;51.504;3.894;2023-12-29T11:19:55;49.54;37.04;67.47;;
66399;Laerm;54877;51.504;3.894;2023-12-29T11:22:24;48.15;36.39;67.15;;
66399;Laerm;54877;51.504;3.894;2023-12-29T11:24:51;47.49;36.73;65.71;;
66399;Laerm;54877;51.504;3.894;2023-12-29T11:27:16;47.64;36.49;66.42;;
66399;Laerm;54877;51.504;3.894;2023-12-29T11:29:42;39.88;36.77;55.54;;
66399;Laerm;54877;51.504;3.894;2023-12-29T11:32:14;39.62;36.66;59.95;;
66399;Laerm;54877;51.504;3.894;2023-12-29T11:34:46;44.89;36.86;63.28;;
66399;Laerm;54877;51.504;3.894;2023-12-29T11:39:58;43.77;36.91;59.68;;
66399;Laerm;54877;51.504;3.894;2023-12-29T11:42:33;51.71;37.04;68.59;;
66399;Laerm;54877;51.504;3.894;2023-12-29T11:45:25;43.64;36.76;62.96;;
66399;Laerm;54877;51.504;3.894;2023-12-29T11:47:53;39.67;36.96;52.90;;
66399;Laerm;54877;51.504;3.894;2023-12-29T11:50:37;48.86;37.19;69.31;;
66399;Laerm;54877;51.504;3.894;2023-12-29T11:53:04;47.03;39.89;58.75;;
66399;Laerm;54877;51.504;3.894;2023-12-29T11:55:37;40.95;38.40;47.03;;
66399;Laerm;54877;51.504;3.894;2023-12-29T11:58:24;41.30;37.95;50.77;;
66399;Laerm;54877;51.504;3.894;2023-12-29T12:00:50;47.88;37.98;64.68;;
66399;Laerm;54877;51.504;3.894;2023-12-29T12:03:25;44.92;37.28;61.90;;
66399;Laerm;54877;51.504;3.894;2023-12-29T12:05:52;38.81;36.92;44.94;;
66399;Laerm;54877;51.504;3.894;2023-12-29T12:08:37;50.39;36.86;67.39;;
66399;Laerm;54877;51.504;3.894;2023-12-29T12:13:55;39.13;37.29;53.49;;
66399;Laerm;54877;51.504;3.894;2023-12-29T12:16:46;40.04;37.22;54.04;;
66399;Laerm;54877;51.504;3.894;2023-12-29T12:19:13;40.35;37.04;51.82;;
66399;Laerm;54877;51.504;3.894;2023-12-29T12:21:38;39.01;37.23;53.65;;
66399;Laerm;54877;51.504;3.894;2023-12-29T12:24:04;45.62;37.33;60.04;;
66399;Laerm;54877;51.504;3.894;2023-12-29T12:26:33;45.35;37.26;61.36;;
66399;Laerm;54877;51.504;3.894;2023-12-29T12:29:00;41.26;36.98;57.50;;
66399;Laerm;54877;51.504;3.894;2023-12-29T12:31:26;39.26;37.31;53.53;;
66399;Laerm;54877;51.504;3.894;2023-12-29T12:33:58;39.71;37.17;48.80;;
66399;Laerm;54877;51.504;3.894;2023-12-29T12:36:26;48.52;37.71;64.72;;
66399;Laerm;54877;51.504;3.894;2023-12-29T12:38:58;45.34;38.16;58.04;;
66399;Laerm;54877;51.504;3.894;2023-12-29T12:41:25;44.79;38.92;52.82;;
66399;Laerm;54877;51.504;3.894;2023-12-29T12:46:40;51.43;37.08;66.77;;
66399;Laerm;54877;51.504;3.894;2023-12-29T12:49:06;48.64;37.55;66.08;;
66399;Laerm;54877;51.504;3.894;2023-12-29T12:51:32;46.42;37.43;64.77;;
66399;Laerm;54877;51.504;3.894;2023-12-29T12:53:59;39.09;37.18;52.06;;
66399;Laerm;54877;51.504;3.894;2023-12-29T12:56:25;46.21;37.05;64.69;;
66399;Laerm;54877;51.504;3.894;2023-12-29T12:58:57;46.80;37.05;65.55;;
66399;Laerm;54877;51.504;3.894;2023-12-29T13:01:23;49.81;37.21;64.63;;
66399;Laerm;54877;51.504;3.894;2023-12-29T13:03:50;47.90;37.19;66.83;;
66399;Laerm;54877;51.504;3.894;2023-12-29T13:06:16;40.98;37.12;65.67;;
66399;Laerm;54877;51.504;3.894;2023-12-29T13:08:42;39.39;37.17;46.89;;
66399;Laerm;54877;51.504;3.894;2023-12-29T13:11:08;44.54;37.10;63.66;;
66399;Laerm;54877;51.504;3.894;2023-12-29T13:13:42;44.77;37.31;62.46;;
66399;Laerm;54877;51.504;3.894;2023-12-29T13:16:08;40.78;36.95;57.69;;
66399;Laerm;54877;51.504;3.894;2023-12-29T13:18:33;38.57;36.81;47.30;;
66399;Laerm;54877;51.504;3.894;2023-12-29T13:21:01;39.14;36.89;58.01;;
66399;Laerm;54877;51.504;3.894;2023-12-29T13:23:27;44.48;37.08;66.08;;
66399;Laerm;54877;51.504;3.894;2023-12-29T13:26:05;42.11;37.04;57.33;;
66399;Laerm;54877;51.504;3.894;2023-12-29T13:28:33;39.40;36.84;56.90;;
66399;Laerm;54877;51.504;3.894;2023-12-29T13:31:00;38.79;36.95;47.45;;
66399;Laerm;54877;51.504;3.894;2023-12-29T13:36:26;40.79;36.50;59.94;;
66399;Laerm;54877;51.504;3.894;2023-12-29T13:38:59;41.77;36.81;56.91;;
66399;Laerm;54877;51.504;3.894;2023-12-29T13:41:32;38.96;36.51;49.09;;
66399;Laerm;54877;51.504;3.894;2023-12-29T13:43:59;45.66;36.85;62.50;;
66399;Laerm;54877;51.504;3.894;2023-12-29T13:46:25;42.11;36.85;56.92;;
66399;Laerm;54877;51.504;3.894;2023-12-29T13:48:51;46.89;36.84;63.42;;
66399;Laerm;54877;51.504;3.894;2023-12-29T13:51:23;39.47;36.52;56.34;;
66399;Laerm;54877;51.504;3.894;2023-12-29T13:53:49;42.09;37.11;59.10;;
66399;Laerm;54877;51.504;3.894;2023-12-29T13:56:15;39.20;36.74;50.18;;
66399;Laerm;54877;51.504;3.894;2023-12-29T13:58:40;44.66;36.60;61.41;;
66399;Laerm;54877;51.504;3.894;2023-12-29T14:01:10;38.83;36.65;52.42;;